createdAt,value
2019-06-15T00:00:24.752Z,14.80
2019-06-15T00:02:53.843Z,14.80
2019-06-15T00:05:22.948Z,14.70
2019-06-15T00:07:52.111Z,14.70
2019-06-15T00:10:21.224Z,14.80
2019-06-15T00:12:50.412Z,14.80
2019-06-15T00:15:19.495Z,14.90
2019-06-15T00:17:48.727Z,15.00
2019-06-15T00:20:17.886Z,15.00
2019-06-15T00:22:46.972Z,15.10
2019-06-15T00:25:16.488Z,15.10
2019-06-15T00:27:45.577Z,15.20
2019-06-15T00:30:14.781Z,15.20
2019-06-15T00:32:43.888Z,15.20
2019-06-15T00:35:13.284Z,15.20
2019-06-15T00:37:42.388Z,15.20
2019-06-15T00:40:12.984Z,15.20
2019-06-15T00:42:42.144Z,15.20
2019-06-15T00:45:11.867Z,15.20
2019-06-15T00:47:40.979Z,15.20
2019-06-15T00:50:10.087Z,15.10
2019-06-15T00:52:39.333Z,15.10
2019-06-15T00:55:08.834Z,15.10
2019-06-15T00:57:37.951Z,15.20
2019-06-15T01:00:08.115Z,15.10
2019-06-15T01:02:37.197Z,15.10
2019-06-15T01:05:06.325Z,15.10
2019-06-15T01:07:35.433Z,15.10
2019-06-15T01:10:04.885Z,15.00
2019-06-15T01:12:34.046Z,15.00
2019-06-15T01:15:03.329Z,15.00
2019-06-15T01:17:32.451Z,15.00
2019-06-15T01:20:01.537Z,15.00
2019-06-15T01:22:30.630Z,14.90
2019-06-15T01:25:05.468Z,14.90
2019-06-15T01:27:30.579Z,14.90
2019-06-15T01:29:59.680Z,14.80
2019-06-15T01:32:28.875Z,14.80
2019-06-15T01:34:57.898Z,14.80
2019-06-15T01:37:26.981Z,14.70
2019-06-15T01:39:56.161Z,14.70
2019-06-15T01:42:25.232Z,14.70
2019-06-15T01:44:54.358Z,14.60
2019-06-15T01:47:23.469Z,14.60
2019-06-15T01:49:52.557Z,14.60
2019-06-15T01:52:21.633Z,14.50
2019-06-15T01:54:50.712Z,14.50
2019-06-15T01:57:19.790Z,14.50
2019-06-15T01:59:48.895Z,14.50
2019-06-15T02:02:18.004Z,14.50
2019-06-15T02:04:47.135Z,14.40
2019-06-15T02:07:16.229Z,14.40
2019-06-15T02:09:45.329Z,14.40
2019-06-15T02:12:14.411Z,14.50
2019-06-15T02:14:43.493Z,14.50
2019-06-15T02:17:12.589Z,14.50
2019-06-15T02:19:42.212Z,14.60
2019-06-15T02:22:11.360Z,14.60
2019-06-15T02:24:40.426Z,14.60
2019-06-15T02:27:09.580Z,14.60
2019-06-15T02:29:38.669Z,14.70
2019-06-15T02:32:07.772Z,14.70
2019-06-15T02:34:36.865Z,14.80
2019-06-15T02:37:05.953Z,14.80
2019-06-15T02:39:35.051Z,14.80
2019-06-15T02:42:04.255Z,14.90
2019-06-15T02:44:33.387Z,14.90
2019-06-15T02:47:02.555Z,14.90
2019-06-15T02:49:31.650Z,14.90
2019-06-15T02:52:00.676Z,15.00
2019-06-15T02:54:29.783Z,15.00
2019-06-15T02:56:58.880Z,15.00
2019-06-15T02:59:27.954Z,15.10
2019-06-15T03:01:57.169Z,15.10
2019-06-15T03:04:26.246Z,15.10
2019-06-15T03:06:55.630Z,15.20
2019-06-15T03:09:24.925Z,15.20
2019-06-15T03:11:54.025Z,15.30
2019-06-15T03:14:23.815Z,15.30
2019-06-15T03:16:52.918Z,15.30
2019-06-15T03:19:21.946Z,15.40
2019-06-15T03:21:51.052Z,15.40
2019-06-15T03:24:20.136Z,15.50
2019-06-15T03:26:49.246Z,15.50
2019-06-15T03:29:18.337Z,15.50
2019-06-15T03:31:47.411Z,15.50
2019-06-15T03:34:16.523Z,15.60
2019-06-15T03:36:45.579Z,15.60
2019-06-15T03:39:14.677Z,15.60
2019-06-15T03:41:43.786Z,15.60
2019-06-15T03:44:12.872Z,15.70
2019-06-15T03:46:41.959Z,15.70
2019-06-15T03:49:11.055Z,15.70
2019-06-15T03:51:40.380Z,15.70
2019-06-15T03:54:09.510Z,15.70
2019-06-15T03:56:38.662Z,15.80
2019-06-15T03:59:07.832Z,15.80
2019-06-15T04:01:42.834Z,15.80
2019-06-15T04:04:11.927Z,15.80
2019-06-15T04:06:41.036Z,15.80
2019-06-15T04:09:10.170Z,15.80
2019-06-15T04:11:39.262Z,15.90
2019-06-15T04:14:08.360Z,15.90
2019-06-15T04:16:37.495Z,15.90
2019-06-15T04:19:06.607Z,16.00
2019-06-15T04:21:35.840Z,16.00
2019-06-15T04:24:05.249Z,16.00
2019-06-15T04:26:36.389Z,16.10
2019-06-15T04:29:05.188Z,16.10
2019-06-15T04:31:34.426Z,16.00
2019-06-15T04:34:03.577Z,16.10
2019-06-15T04:36:32.709Z,16.10
2019-06-15T04:39:01.839Z,16.10
2019-06-15T04:41:30.857Z,16.10
2019-06-15T04:44:00.035Z,16.10
2019-06-15T04:46:31.981Z,16.10
2019-06-15T04:48:59.957Z,16.20
2019-06-15T04:51:29.062Z,16.10
2019-06-15T04:53:58.176Z,16.20
2019-06-15T04:56:27.220Z,16.10
2019-06-15T04:58:56.436Z,16.10
2019-06-15T05:01:25.633Z,16.00
2019-06-15T05:03:54.779Z,16.10
2019-06-15T05:06:23.880Z,16.10
2019-06-15T05:08:53.005Z,16.10
2019-06-15T05:11:22.435Z,16.10
2019-06-15T05:13:51.532Z,16.20
2019-06-15T05:16:20.677Z,16.30
2019-06-15T05:18:49.843Z,16.30
2019-06-15T05:21:19.067Z,16.40
2019-06-15T05:23:48.097Z,16.40
2019-06-15T05:26:17.186Z,16.40
2019-06-15T05:28:46.347Z,16.40
2019-06-15T05:31:15.477Z,16.40
2019-06-15T05:33:44.483Z,16.40
2019-06-15T05:36:14.385Z,16.50
2019-06-15T05:38:43.486Z,16.50
2019-06-15T05:41:15.534Z,16.50
2019-06-15T05:43:43.328Z,16.60
2019-06-15T05:46:12.506Z,16.70
2019-06-15T05:48:41.597Z,16.80
2019-06-15T05:51:10.700Z,16.80
2019-06-15T05:53:39.779Z,16.90
2019-06-15T05:56:08.909Z,17.00
2019-06-15T05:58:38.003Z,17.10
2019-06-15T06:01:07.101Z,17.10
2019-06-15T06:03:36.205Z,17.20
2019-06-15T06:06:05.310Z,17.20
2019-06-15T06:08:34.431Z,17.20
2019-06-15T06:11:03.539Z,17.20
2019-06-15T06:13:32.691Z,17.20
2019-06-15T06:16:01.869Z,17.30
2019-06-15T06:18:31.015Z,17.40
2019-06-15T06:21:00.122Z,17.40
2019-06-15T06:23:29.220Z,17.60
2019-06-15T06:25:58.329Z,17.90
2019-06-15T06:28:27.431Z,18.10
2019-06-15T06:30:56.556Z,18.20
2019-06-15T06:33:25.724Z,18.20
2019-06-15T06:35:54.904Z,18.30
2019-06-15T06:38:24.006Z,18.30
2019-06-15T06:40:53.074Z,18.30
2019-06-15T06:43:22.235Z,18.20
2019-06-15T06:45:51.344Z,18.10
2019-06-15T06:48:20.424Z,17.90
2019-06-15T06:50:49.542Z,17.80
2019-06-15T06:53:18.643Z,17.80
2019-06-15T06:55:47.807Z,17.90
2019-06-15T06:58:16.912Z,18.00
2019-06-15T07:00:45.993Z,18.10
2019-06-15T07:03:15.093Z,18.20
2019-06-15T07:05:44.219Z,18.30
2019-06-15T07:08:13.322Z,18.30
2019-06-15T07:10:42.400Z,18.20
2019-06-15T07:13:11.506Z,18.00
2019-06-15T07:15:40.716Z,17.90
2019-06-15T07:18:28.892Z,17.80
2019-06-15T07:20:58.007Z,17.70
2019-06-15T07:23:27.032Z,17.70
2019-06-15T07:25:56.132Z,17.50
2019-06-15T07:28:25.271Z,17.50
2019-06-15T07:30:54.337Z,17.40
2019-06-15T07:33:23.447Z,17.40
2019-06-15T07:35:52.539Z,17.60
2019-06-15T07:38:21.628Z,17.80
2019-06-15T07:40:50.711Z,18.10
2019-06-15T07:43:19.798Z,18.70
2019-06-15T07:45:48.905Z,18.90
2019-06-15T07:48:18.017Z,18.90
2019-06-15T07:50:47.154Z,18.80
2019-06-15T07:53:16.248Z,18.60
2019-06-15T07:55:45.363Z,18.50
2019-06-15T07:58:24.318Z,18.30
2019-06-15T08:00:45.268Z,18.10
2019-06-15T08:03:14.369Z,17.90
2019-06-15T08:05:43.439Z,17.80
2019-06-15T08:08:12.670Z,17.70
2019-06-15T08:10:41.838Z,17.60
2019-06-15T08:13:10.977Z,17.50
2019-06-15T08:15:40.162Z,17.60
2019-06-15T08:18:09.864Z,17.50
2019-06-15T08:20:39.783Z,17.50
2019-06-15T08:23:08.878Z,17.50
2019-06-15T08:25:37.992Z,17.40
2019-06-15T08:28:07.064Z,17.30
2019-06-15T08:30:41.433Z,17.30
2019-06-15T08:33:10.591Z,17.30
2019-06-15T08:35:39.686Z,17.40
2019-06-15T08:38:08.878Z,17.40
2019-06-15T08:40:37.996Z,17.40
2019-06-15T08:43:07.162Z,17.70
2019-06-15T08:45:36.305Z,18.00
2019-06-15T08:48:05.455Z,18.40
2019-06-15T08:50:34.637Z,18.70
2019-06-15T08:53:03.809Z,19.00
2019-06-15T08:55:32.913Z,19.40
2019-06-15T08:58:01.988Z,19.90
2019-06-15T09:00:31.088Z,20.10
2019-06-15T09:03:00.260Z,20.40
2019-06-15T09:05:29.364Z,20.60
2019-06-15T09:07:58.459Z,20.80
2019-06-15T09:10:27.533Z,21.10
2019-06-15T09:12:56.611Z,21.30
2019-06-15T09:15:42.469Z,21.50
2019-06-15T09:18:11.598Z,21.50
2019-06-15T09:20:40.687Z,21.70
2019-06-15T09:23:09.766Z,21.70
2019-06-15T09:25:38.840Z,21.80
2019-06-15T09:28:07.938Z,21.70
2019-06-15T09:30:37.046Z,21.40
2019-06-15T09:33:06.158Z,20.90
2019-06-15T09:35:35.264Z,20.30
2019-06-15T09:38:04.384Z,19.80
2019-06-15T09:40:33.514Z,19.50
2019-06-15T09:43:02.590Z,19.20
2019-06-15T09:45:33.082Z,19.00
2019-06-15T09:48:02.325Z,18.80
2019-06-15T09:50:31.414Z,18.60
2019-06-15T09:53:00.537Z,18.50
2019-06-15T09:55:29.742Z,18.50
2019-06-15T09:57:58.859Z,18.70
2019-06-15T10:00:27.937Z,19.00
2019-06-15T10:02:57.037Z,19.20
2019-06-15T10:05:26.158Z,19.50
2019-06-15T10:07:55.291Z,19.90
2019-06-15T10:10:24.574Z,20.10
2019-06-15T10:12:53.818Z,20.20
2019-06-15T10:15:22.946Z,20.30
2019-06-15T10:17:52.049Z,20.30
2019-06-15T10:20:21.234Z,20.50
2019-06-15T10:22:50.310Z,20.80
2019-06-15T10:25:19.494Z,21.20
2019-06-15T10:27:48.668Z,21.50
2019-06-15T10:30:17.973Z,21.60
2019-06-15T10:32:47.065Z,21.70
2019-06-15T10:35:16.152Z,21.80
2019-06-15T10:37:45.183Z,21.80
2019-06-15T10:40:14.432Z,21.80
2019-06-15T10:42:43.494Z,21.70
2019-06-15T10:45:13.110Z,21.50
2019-06-15T10:47:42.197Z,21.30
2019-06-15T10:50:11.704Z,21.10
2019-06-15T10:52:40.820Z,21.10
2019-06-15T10:55:10.010Z,21.10
2019-06-15T10:57:39.031Z,21.20
2019-06-15T11:00:08.871Z,21.40
2019-06-15T11:02:37.995Z,21.80
2019-06-15T11:05:07.861Z,22.10
2019-06-15T11:07:36.940Z,22.40
2019-06-15T11:10:07.614Z,22.70
2019-06-15T11:12:45.851Z,22.90
2019-06-15T11:15:07.607Z,23.10
2019-06-15T11:17:36.690Z,23.00
2019-06-15T11:20:06.055Z,22.80
2019-06-15T11:22:35.169Z,22.60
2019-06-15T11:25:04.594Z,22.30
2019-06-15T11:27:33.678Z,22.10
2019-06-15T11:30:12.878Z,22.00
2019-06-15T11:32:33.643Z,21.80
2019-06-15T11:35:02.726Z,21.80
2019-06-15T11:37:31.895Z,21.90
2019-06-15T11:40:00.971Z,22.20
2019-06-15T11:42:30.066Z,22.30
2019-06-15T11:44:59.170Z,22.30
2019-06-15T11:47:28.247Z,22.50
2019-06-15T11:49:57.358Z,22.50
2019-06-15T11:52:26.444Z,22.50
2019-06-15T11:54:55.562Z,22.50
2019-06-15T11:57:24.667Z,22.30
2019-06-15T11:59:53.775Z,22.10
2019-06-15T12:02:22.888Z,22.00
2019-06-15T12:04:58.440Z,21.90
2019-06-15T12:07:22.793Z,21.90
2019-06-15T12:09:51.892Z,21.90
2019-06-15T12:12:20.959Z,21.80
2019-06-15T12:14:50.079Z,21.80
2019-06-15T12:17:19.167Z,21.90
2019-06-15T12:19:48.274Z,22.00
2019-06-15T12:22:17.359Z,22.00
2019-06-15T12:24:46.466Z,22.00
2019-06-15T12:27:15.527Z,21.90
2019-06-15T12:29:44.668Z,21.90
2019-06-15T12:32:13.785Z,21.90
2019-06-15T12:34:42.877Z,22.10
2019-06-15T12:37:11.957Z,22.10
2019-06-15T12:39:42.089Z,22.30
2019-06-15T12:42:11.404Z,22.40
2019-06-15T12:44:40.524Z,22.60
2019-06-15T12:47:09.607Z,22.80
2019-06-15T12:49:38.701Z,23.00
2019-06-15T12:52:07.771Z,23.10
2019-06-15T12:54:36.861Z,23.20
2019-06-15T12:57:05.979Z,23.40
2019-06-15T12:59:35.037Z,23.60
2019-06-15T13:02:04.103Z,23.70
2019-06-15T13:04:33.407Z,23.70
2019-06-15T13:07:02.537Z,23.70
2019-06-15T13:09:31.665Z,23.70
2019-06-15T13:12:00.762Z,23.70
2019-06-15T13:14:29.937Z,23.70
2019-06-15T13:16:59.068Z,23.90
2019-06-15T13:19:28.148Z,24.00
2019-06-15T13:21:57.252Z,24.10
2019-06-15T13:24:26.336Z,24.20
2019-06-15T13:26:55.426Z,24.40
2019-06-15T13:29:24.538Z,24.60
2019-06-15T13:31:53.652Z,24.70
2019-06-15T13:34:22.730Z,24.80
2019-06-15T13:36:51.821Z,25.00
2019-06-15T13:39:20.919Z,25.10
2019-06-15T13:41:50.085Z,25.20
2019-06-15T13:44:19.174Z,25.20
2019-06-15T13:46:48.274Z,25.20
2019-06-15T13:49:17.378Z,25.00
2019-06-15T13:51:46.464Z,24.80
2019-06-15T13:54:15.545Z,24.80
2019-06-15T13:56:44.633Z,24.80
2019-06-15T13:59:13.700Z,24.90
2019-06-15T14:01:42.823Z,24.90
2019-06-15T14:04:11.917Z,24.80
2019-06-15T14:06:41.089Z,24.70
2019-06-15T14:09:10.187Z,24.60
2019-06-15T14:11:39.268Z,24.70
2019-06-15T14:14:08.438Z,24.90
2019-06-15T14:16:37.530Z,25.00
2019-06-15T14:19:06.662Z,25.00
2019-06-15T14:21:35.740Z,24.80
2019-06-15T14:24:04.832Z,24.70
2019-06-15T14:26:33.942Z,24.70
2019-06-15T14:29:03.119Z,24.60
2019-06-15T14:31:32.260Z,24.40
2019-06-15T14:34:01.377Z,24.40
2019-06-15T14:36:30.529Z,24.50
2019-06-15T14:38:59.614Z,24.50
2019-06-15T14:41:28.706Z,24.70
2019-06-15T14:43:57.821Z,24.80
2019-06-15T14:46:27.051Z,24.90
2019-06-15T14:48:56.178Z,24.90
2019-06-15T14:51:25.235Z,24.90
2019-06-15T14:53:58.304Z,24.90
2019-06-15T14:56:25.052Z,24.70
2019-06-15T14:58:56.237Z,24.60
2019-06-15T15:01:26.131Z,24.50
2019-06-15T15:03:57.230Z,24.40
2019-06-15T15:06:26.952Z,24.20
2019-06-15T15:08:56.328Z,24.10
2019-06-15T15:11:26.453Z,23.90
2019-06-15T15:13:56.188Z,23.90
2019-06-15T15:16:25.519Z,23.70
2019-06-15T15:18:56.675Z,23.50
2019-06-15T15:21:26.538Z,23.30
2019-06-15T15:23:57.036Z,23.30
2019-06-15T15:26:26.643Z,23.30
2019-06-15T15:28:56.571Z,23.40
2019-06-15T15:31:27.275Z,23.50
2019-06-15T15:33:56.579Z,23.70
2019-06-15T15:36:26.337Z,23.80
2019-06-15T15:38:56.122Z,23.90
2019-06-15T15:41:26.657Z,23.90
2019-06-15T15:43:55.905Z,23.90
2019-06-15T15:46:25.018Z,24.00
2019-06-15T15:48:54.108Z,24.00
2019-06-15T15:51:23.221Z,24.00
2019-06-15T15:53:52.307Z,23.90
2019-06-15T15:56:21.418Z,23.80
2019-06-15T15:58:50.563Z,23.80
2019-06-15T16:01:19.700Z,23.80
2019-06-15T16:03:48.810Z,23.80
2019-06-15T16:06:17.996Z,23.80
2019-06-15T16:08:47.372Z,23.80
2019-06-15T16:11:16.581Z,23.80
2019-06-15T16:13:46.244Z,23.80
2019-06-15T16:16:16.459Z,23.80
2019-06-15T16:18:47.035Z,23.80
2019-06-15T16:21:16.966Z,23.90
2019-06-15T16:23:47.119Z,23.90
2019-06-15T16:26:17.171Z,24.00
2019-06-15T16:28:46.419Z,23.90
2019-06-15T16:31:18.809Z,23.90
2019-06-15T16:33:46.679Z,23.90
2019-06-15T16:36:15.843Z,23.90
2019-06-15T16:38:47.029Z,23.90
2019-06-15T16:41:15.775Z,23.90
2019-06-15T16:43:46.133Z,23.90
2019-06-15T16:46:17.238Z,23.90
2019-06-15T16:48:46.842Z,24.00
2019-06-15T16:51:16.844Z,24.10
2019-06-15T16:53:47.397Z,24.20
2019-06-15T16:56:16.770Z,24.40
2019-06-15T16:58:46.796Z,24.70
2019-06-15T17:01:16.878Z,25.00
2019-06-15T17:03:47.015Z,25.20
2019-06-15T17:06:16.505Z,25.40
2019-06-15T17:08:46.502Z,25.60
2019-06-15T17:11:17.321Z,25.80
2019-06-15T17:13:47.516Z,26.00
2019-06-15T17:16:16.962Z,26.10
2019-06-15T17:18:47.110Z,26.00
2019-06-15T17:21:17.025Z,26.00
2019-06-15T17:23:46.801Z,25.80
2019-06-15T17:26:16.887Z,25.60
2019-06-15T17:28:46.195Z,25.40
2019-06-15T17:31:16.606Z,25.10
2019-06-15T17:33:46.872Z,25.00
2019-06-15T17:36:16.466Z,25.20
2019-06-15T17:38:46.212Z,25.40
2019-06-15T17:41:17.326Z,25.70
2019-06-15T17:43:47.421Z,26.00
2019-06-15T17:46:16.734Z,26.40
2019-06-15T17:48:46.700Z,26.60
2019-06-15T17:51:16.196Z,26.80
2019-06-15T17:53:47.370Z,27.00
2019-06-15T17:56:16.429Z,27.30
2019-06-15T17:58:46.338Z,27.40
2019-06-15T18:01:17.186Z,27.50
2019-06-15T18:03:51.601Z,27.40
2019-06-15T18:06:17.622Z,27.30
2019-06-15T18:08:46.779Z,27.00
2019-06-15T18:11:16.524Z,26.70
2019-06-15T18:13:47.267Z,26.30
2019-06-15T18:16:16.505Z,25.90
2019-06-15T18:18:45.589Z,25.50
2019-06-15T18:21:15.986Z,25.20
2019-06-15T18:23:46.476Z,25.00
2019-06-15T18:26:16.202Z,24.70
2019-06-15T18:28:46.893Z,24.50
2019-06-15T18:31:16.418Z,24.20
2019-06-15T18:33:47.301Z,23.90
2019-06-15T18:36:17.136Z,23.60
2019-06-15T18:38:46.707Z,23.40
2019-06-15T18:41:17.050Z,23.10
2019-06-15T18:43:46.315Z,22.80
2019-06-15T18:46:15.485Z,22.60
2019-06-15T18:48:46.893Z,22.30
2019-06-15T18:51:16.544Z,22.10
2019-06-15T18:53:46.563Z,21.90
2019-06-15T18:56:16.366Z,21.70
2019-06-15T18:58:47.669Z,21.50
2019-06-15T19:01:16.522Z,21.40
2019-06-15T19:03:47.476Z,21.20
2019-06-15T19:06:16.912Z,21.10
2019-06-15T19:08:46.866Z,21.00
2019-06-15T19:11:16.575Z,21.00
2019-06-15T19:13:46.600Z,20.80
2019-06-15T19:16:16.608Z,20.70
2019-06-15T19:18:46.346Z,20.60
2019-06-15T19:21:16.994Z,20.50
2019-06-15T19:23:46.958Z,20.40
2019-06-15T19:26:16.528Z,20.30
2019-06-15T19:28:46.024Z,20.20
2019-06-15T19:31:15.520Z,20.00
2019-06-15T19:33:46.717Z,20.00
2019-06-15T19:36:15.414Z,20.00
2019-06-15T19:38:46.955Z,19.90
2019-06-15T19:41:16.017Z,19.80
2019-06-15T19:43:46.768Z,19.70
2019-06-15T19:46:17.056Z,19.60
2019-06-15T19:48:46.302Z,19.60
2019-06-15T19:51:15.530Z,19.50
2019-06-15T19:53:46.252Z,19.40
2019-06-15T19:56:15.451Z,19.40
2019-06-15T19:58:46.133Z,19.30
2019-06-15T20:01:16.800Z,19.20
2019-06-15T20:03:46.477Z,19.20
2019-06-15T20:06:16.981Z,19.10
2019-06-15T20:08:46.911Z,19.00
2019-06-15T20:11:16.286Z,19.00
2019-06-15T20:13:47.406Z,18.90
2019-06-15T20:16:16.628Z,18.80
2019-06-15T20:18:46.577Z,18.80
2019-06-15T20:21:15.944Z,18.80
2019-06-15T20:23:47.502Z,18.70
2019-06-15T20:26:16.103Z,18.70
2019-06-15T20:28:46.977Z,18.70
2019-06-15T20:31:16.865Z,18.70
2019-06-15T20:33:46.593Z,18.70
2019-06-15T20:36:16.122Z,18.70
2019-06-15T20:38:46.904Z,18.70
2019-06-15T20:41:16.427Z,18.70
2019-06-15T20:43:46.020Z,18.60
2019-06-15T20:46:17.228Z,18.50
2019-06-15T20:48:47.013Z,18.50
2019-06-15T20:51:17.411Z,18.40
2019-06-15T20:53:46.757Z,18.30
2019-06-15T20:56:17.061Z,18.30
2019-06-15T20:58:46.308Z,18.30
2019-06-15T21:01:16.436Z,18.30
2019-06-15T21:03:47.070Z,18.30
2019-06-15T21:06:16.832Z,18.30
2019-06-15T21:08:46.946Z,18.30
2019-06-15T21:11:19.303Z,18.30
2019-06-15T21:13:48.510Z,18.30
2019-06-15T21:16:17.623Z,18.30
2019-06-15T21:18:46.996Z,18.30
2019-06-15T21:21:16.177Z,18.30
2019-06-15T21:23:46.342Z,18.30
2019-06-15T21:26:16.366Z,18.30
2019-06-15T21:28:45.705Z,18.30
2019-06-15T21:31:16.701Z,18.30
2019-06-15T21:33:46.765Z,18.20
2019-06-15T21:36:15.998Z,18.30
2019-06-15T21:38:46.818Z,18.30
2019-06-15T21:41:16.659Z,18.30
2019-06-15T21:43:47.153Z,18.20
2019-06-15T21:46:36.235Z,18.20
2019-06-15T21:49:07.247Z,18.20
2019-06-15T21:51:36.736Z,18.20
2019-06-15T21:54:06.895Z,18.20
2019-06-15T21:56:36.962Z,18.20
2019-06-15T21:59:07.384Z,18.20
2019-06-15T22:01:37.648Z,18.20
2019-06-15T22:04:07.448Z,18.20
2019-06-15T22:06:37.308Z,18.20
2019-06-15T22:09:12.473Z,18.20
2019-06-15T22:11:42.916Z,18.10
2019-06-15T22:14:12.021Z,18.10
2019-06-15T22:16:41.137Z,18.10
2019-06-15T22:19:10.223Z,18.00
2019-06-15T22:21:39.610Z,18.00
2019-06-15T22:24:08.965Z,18.00
2019-06-15T22:26:38.068Z,18.00
2019-06-15T22:29:07.673Z,18.00
2019-06-15T22:31:36.962Z,18.00
2019-06-15T22:34:06.676Z,18.00
2019-06-15T22:36:36.438Z,18.00
2019-06-15T22:39:06.882Z,17.90
2019-06-15T22:41:36.226Z,17.90
2019-06-15T22:44:06.319Z,17.90
2019-06-15T22:46:35.659Z,17.90
2019-06-15T22:49:06.829Z,17.90
2019-06-15T22:51:36.825Z,17.90
2019-06-15T22:54:06.150Z,17.90
2019-06-15T22:56:37.048Z,17.80
2019-06-15T22:59:09.313Z,17.80
2019-06-15T23:01:38.392Z,17.80
2019-06-15T23:04:07.494Z,17.80
2019-06-15T23:06:40.665Z,17.70
2019-06-15T23:09:07.637Z,17.60
2019-06-15T23:11:36.763Z,17.60
2019-06-15T23:14:06.835Z,17.60
2019-06-15T23:16:36.910Z,17.60
2019-06-15T23:19:07.782Z,17.50
2019-06-15T23:21:37.431Z,17.50
2019-06-15T23:24:06.842Z,17.50
2019-06-15T23:26:36.895Z,17.40
2019-06-15T23:29:06.915Z,17.30
2019-06-15T23:31:36.704Z,17.30
2019-06-15T23:34:07.021Z,17.20
2019-06-15T23:36:53.070Z,17.20
2019-06-15T23:39:09.883Z,17.10
2019-06-15T23:41:38.989Z,17.10
2019-06-15T23:44:08.104Z,17.00
2019-06-15T23:46:37.266Z,17.00
2019-06-15T23:49:07.156Z,16.90
2019-06-15T23:51:40.085Z,16.80
2019-06-15T23:54:09.185Z,16.80
2019-06-15T23:56:38.297Z,16.70
2019-06-15T23:59:07.447Z,16.70
